METAR Reports

Area Airport Weather Conditions

KBDL - Windsor Locks, Connecticut, USA
Distance from station: NE 45mi, 72km
Updated: 12:51AM EDT, September 17, 2019
Clear
Clear
 Wind from NNW
Wind: NNW 6 mph , 9 km/h
Temperature: 54°F , 12°C
Dew Point: 48°F , 9°C
Humidity: 82%
Barometer: 30.10 inHg , 1019.3 hPa
Clouds: Clear
Visibility: 10 miles , 16 km
2019/09/17 04:51 KBDL 170451Z 33005KT 10SM CLR 12/09 A3010 RMK AO2 SLP192 T01220094 402500117
KDXR - Danbury, Connecticut, USA
Distance from station: SSW 15mi, 24km
Updated: 12:53AM EDT, September 17, 2019
Clear
Clear
 Wind from calm
Wind: Calm
Temperature: 54°F , 12°C
Dew Point: 52°F , 11°C
Humidity: 94%
Barometer: 30.11 inHg , 1019.6 hPa
Clouds: Clear
Visibility: 10 miles , 16 km
2019/09/17 04:53 KDXR 170453Z AUTO 00000KT 10SM CLR 12/11 A3011 RMK AO2 SLP193 T01170106 402330111
 
KOXC - Oxford/Waterbury, Connecticut, USA
Distance from station: ESE 16mi, 26km
Updated: 12:51AM EDT, September 17, 2019
Clear
Clear
 Wind from NNE
Wind: NNE 9 mph , 15 km/h
Temperature: 57°F , 14°C
Dew Point: 48°F , 9°C
Humidity: 72%
Barometer: 30.10 inHg , 1019.3 hPa
Clouds: Clear
Visibility: 10 miles , 16 km
2019/09/17 04:51 KOXC 170451Z AUTO 02008KT 10SM CLR 14/09 A3010 RMK AO2 SLP204 T01440089 402170122
KPOU - Poughkeepsie, New York, USA
Distance from station: W 25mi, 40km
Updated: 12:53AM EDT, September 17, 2019
Clear
Clear
 Wind from calm
Wind: Calm
Temperature: 52°F , 11°C
Dew Point: 50°F , 10°C
Humidity: 94%
Barometer: 30.09 inHg , 1019 hPa
Clouds: Clear
Visibility: 10 miles , 16 km
2019/09/17 04:53 KPOU 170453Z AUTO 00000KT 10SM CLR 11/10 A3009 RMK AO2 SLP187 T01110100 402440111
 
KMMK - Meriden, Connecticut, USA
Distance from station: E 30mi, 48km
Updated: 12:53AM EDT, September 17, 2019
Clear
Clear
 Wind from calm
Wind: Calm
Temperature: 54°F , 12°C
Dew Point: 50°F , 10°C
Humidity: 88%
Barometer: 30.09 inHg , 1019 hPa
Clouds: Clear
Visibility: 10 miles , 16 km
2019/09/17 04:53 KMMK 170453Z AUTO 00000KT 10SM CLR 12/10 A3009 RMK AO2 SLP189 T01170100 402500111
KBDR - Bridgeport, Connecticut, USA
Distance from station: SSE 32mi, 51km
Updated: 12:52AM EDT, September 17, 2019
Clear
Clear
 Wind from N
Wind: N 5 mph , 7 km/h
Temperature: 61°F , 16°C
Dew Point: 50°F , 10°C
Humidity: 68%
Barometer: 30.08 inHg , 1018.6 hPa
Clouds: Clear
Visibility: 10 miles , 16 km
2019/09/17 04:52 KBDR 170452Z AUTO 01004KT 10SM CLR 16/10 A3008 RMK AO2 SLP185 T01560100 402440156
 
KHVN - New Haven/Tweed, Connecticut, USA
Distance from station: SE 35mi, 57km
Updated: 12:53AM EDT, September 17, 2019
Clear
Clear
 Wind from N
Wind: N 3 mph , 6 km/h
Temperature: 57°F , 14°C
Dew Point: 52°F , 11°C
Humidity: 82%
Barometer: 30.08 inHg , 1018.6 hPa
Clouds: Clear
Visibility: 7 miles , 11 km
2019/09/17 04:53 KHVN 170453Z AUTO 36003KT 7SM CLR 14/11 A3008 RMK AO2 SLP186 T01440106 402440139
KSWF - Newburgh/Stewart, New York, USA
Distance from station: W 35mi, 57km
Updated: 1:45AM EDT, September 17, 2019
Clear
Clear
 Wind from calm
Wind: Calm
Temperature: 57°F , 14°C
Dew Point: 57°F , 14°C
Humidity: 100%
Barometer: 30.10 inHg , 1019.3 hPa
Clouds: Clear
Visibility: 10 miles , 16 km
2019/09/17 05:45 KSWF 170545Z 00000KT 10SM SKC 14/14 A3010
 
KHPN - White Plains, New York, USA
Distance from station: SSW 38mi, 62km
Updated: 12:56AM EDT, September 17, 2019
Mostly cloudy
Mostly cloudy
 Wind from NE
Wind: NE 5 mph , 7 km/h
Temperature: 63°F , 17°C
Dew Point: 48°F , 9°C
Humidity: 59%
Barometer: 30.08 inHg , 1018.6 hPa
Clouds: Mostly cloudy
Visibility: 10 miles , 16 km
Cloud details: Mostly cloudy 4200 ft
2019/09/17 04:56 KHPN 170456Z 04004KT 10SM BKN042 17/09 A3008 RMK AO2 SLP182 T01720094 402330167
KHFD - Hartford/Brainar, Connecticut, USA
Distance from station: ENE 41mi, 65km
Updated: 12:53AM EDT, September 17, 2019
Clear
Clear
 Wind from NNE
Wind: NNE 3 mph , 6 km/h
Temperature: 57°F , 14°C
Dew Point: 48°F , 9°C
Humidity: 72%
Barometer: 30.10 inHg , 1019.3 hPa
Clouds: Clear
Visibility: 10 miles , 16 km
2019/09/17 04:53 KHFD 170453Z AUTO 02003KT 10SM CLR 14/09 A3010 RMK AO2 SLP191 T01390094 402440139